VAF230 MKJP-KMIA
Flight info
| Callsign | VAF230 |
|---|---|
| Flight time | 1h 31m |
| Altitude | 34000 |
| Route | ALTIB UM779 ZEUSS VIICE2 |
| Aircraft | B738/M-SDE2E3FGHIRWXY/LB1 |
Departure
| Time | 2026-05-06 15:05 |
|---|---|
| Airport | Norman Manley International Airport (MKJP) |
Arrival
| Time | 2026-05-06 16:36 |
|---|---|
| Airport | Miami International Airport (KMIA) |
| Time | Latitude | Longitude | Altitude | Speed | Heading |
|---|---|---|---|---|---|
| 2026-05-06 14:58 | 17.93656 | -76.77939 | 18 ft | 0 kts | 292° |
| 2026-05-06 14:59 | 17.93655 | -76.77935 | 18 ft | 3 kts | 292° |
| 2026-05-06 14:59 | 17.93644 | -76.77910 | 18 ft | 4 kts | 292° |
| 2026-05-06 14:59 | 17.93636 | -76.77883 | 18 ft | 4 kts | 273° |
| 2026-05-06 15:00 | 17.93640 | -76.77865 | 18 ft | 2 kts | 201° |
| 2026-05-06 15:00 | 17.93642 | -76.77864 | 18 ft | 0 kts | 199° |
| 2026-05-06 15:01 | 17.93609 | -76.77869 | 18 ft | 9 kts | 194° |
| 2026-05-06 15:01 | 17.93526 | -76.77902 | 18 ft | 16 kts | 201° |
| 2026-05-06 15:02 | 17.93416 | -76.77925 | 18 ft | 14 kts | 147° |
| 2026-05-06 15:02 | 17.93381 | -76.77852 | 18 ft | 13 kts | 112° |
| 2026-05-06 15:02 | 17.93341 | -76.77750 | 18 ft | 15 kts | 112° |
| 2026-05-06 15:02 | 17.93284 | -76.77735 | 18 ft | 11 kts | 207° |
| 2026-05-06 15:03 | 17.93204 | -76.77759 | 18 ft | 15 kts | 161° |
| 2026-05-06 15:03 | 17.93153 | -76.77675 | 18 ft | 12 kts | 103° |
| 2026-05-06 15:03 | 17.93160 | -76.77596 | 18 ft | 14 kts | 101° |
| 2026-05-06 15:03 | 17.93121 | -76.77588 | 18 ft | 4 kts | 270° |
| 2026-05-06 15:04 | 17.93128 | -76.77608 | 18 ft | 7 kts | 291° |
| 2026-05-06 15:04 | 17.93203 | -76.77809 | 18 ft | 65 kts | 291° |
| 2026-05-06 15:04 | 17.93457 | -76.78473 | 18 ft | 129 kts | 292° |
| 2026-05-06 15:04 | 17.93875 | -76.79527 | 116 ft | 175 kts | 293° |
| 2026-05-06 15:05 | 17.94400 | -76.80740 | 766 ft | 192 kts | 295° |
| 2026-05-06 15:05 | 17.94980 | -76.82132 | 1173 ft | 222 kts | 292° |
| 2026-05-06 15:05 | 17.95577 | -76.83688 | 1771 ft | 232 kts | 292° |
| 2026-05-06 15:05 | 17.96177 | -76.85246 | 2733 ft | 229 kts | 292° |
| 2026-05-06 15:06 | 17.96687 | -76.86785 | 3682 ft | 225 kts | 286° |
| 2026-05-06 15:06 | 17.97171 | -76.88365 | 4428 ft | 231 kts | 287° |
| 2026-05-06 15:06 | 17.97733 | -76.89968 | 5214 ft | 235 kts | 289° |
| 2026-05-06 15:06 | 17.98337 | -76.91588 | 5911 ft | 243 kts | 289° |
| 2026-05-06 15:07 | 17.98969 | -76.93259 | 6574 ft | 250 kts | 289° |
| 2026-05-06 15:07 | 17.99625 | -76.94978 | 7259 ft | 256 kts | 289° |
| 2026-05-06 15:07 | 18.00298 | -76.96733 | 7931 ft | 262 kts | 290° |
| 2026-05-06 15:07 | 18.00986 | -76.98526 | 8646 ft | 265 kts | 290° |
| 2026-05-06 15:08 | 18.01671 | -77.00307 | 9366 ft | 268 kts | 290° |
| 2026-05-06 15:08 | 18.02374 | -77.02131 | 10060 ft | 271 kts | 291° |
| 2026-05-06 15:08 | 18.03083 | -77.03972 | 10809 ft | 272 kts | 291° |
| 2026-05-06 15:08 | 18.03872 | -77.05803 | 11446 ft | 277 kts | 305° |
| 2026-05-06 15:09 | 18.05334 | -77.07106 | 12109 ft | 279 kts | 336° |
| 2026-05-06 15:09 | 18.07233 | -77.07406 | 12797 ft | 280 kts | 8° |
| 2026-05-06 15:09 | 18.09011 | -77.06666 | 13419 ft | 282 kts | 33° |
| 2026-05-06 15:09 | 18.10645 | -77.05498 | 14103 ft | 286 kts | 38° |
| 2026-05-06 15:10 | 18.12190 | -77.04161 | 14797 ft | 289 kts | 42° |
| 2026-05-06 15:10 | 18.13573 | -77.02968 | 15350 ft | 294 kts | 38° |
| 2026-05-06 15:10 | 18.15071 | -77.01538 | 16176 ft | 285 kts | 47° |
| 2026-05-06 15:10 | 18.16418 | -77.00118 | 17365 ft | 268 kts | 44° |
| 2026-05-06 15:11 | 18.17772 | -76.98748 | 17882 ft | 276 kts | 46° |
| 2026-05-06 15:11 | 18.19092 | -76.97190 | 18117 ft | 294 kts | 51° |
| 2026-05-06 15:11 | 18.20362 | -76.95412 | 18365 ft | 311 kts | 56° |
| 2026-05-06 15:11 | 18.21570 | -76.93499 | 18908 ft | 316 kts | 57° |
| 2026-05-06 15:12 | 18.22714 | -76.91552 | 19559 ft | 317 kts | 61° |
| 2026-05-06 15:12 | 18.23746 | -76.89457 | 20152 ft | 321 kts | 63° |
| 2026-05-06 15:12 | 18.25086 | -76.87599 | 20685 ft | 321 kts | 37° |
| 2026-05-06 15:12 | 18.26993 | -76.86484 | 21319 ft | 316 kts | 19° |
| 2026-05-06 15:13 | 18.29133 | -76.86139 | 21923 ft | 310 kts | 355° |
| 2026-05-06 15:13 | 18.31282 | -76.86440 | 22424 ft | 314 kts | 348° |
| 2026-05-06 15:13 | 18.33486 | -76.86849 | 22631 ft | 329 kts | 350° |
| 2026-05-06 15:13 | 18.35788 | -76.87276 | 22803 ft | 342 kts | 348° |
| 2026-05-06 15:14 | 18.38167 | -76.87799 | 22964 ft | 356 kts | 347° |
| 2026-05-06 15:14 | 18.40635 | -76.88357 | 23114 ft | 368 kts | 347° |
| 2026-05-06 15:14 | 18.43148 | -76.88927 | 23253 ft | 380 kts | 347° |
| 2026-05-06 15:14 | 18.45773 | -76.89511 | 23384 ft | 391 kts | 347° |
| 2026-05-06 15:15 | 18.48478 | -76.90114 | 23503 ft | 401 kts | 347° |
| 2026-05-06 15:15 | 18.51241 | -76.90731 | 23643 ft | 409 kts | 347° |
| 2026-05-06 15:15 | 18.54043 | -76.91357 | 23946 ft | 412 kts | 347° |
| 2026-05-06 15:15 | 18.56820 | -76.91979 | 24314 ft | 414 kts | 348° |
| 2026-05-06 15:16 | 18.59641 | -76.92610 | 24673 ft | 415 kts | 348° |
| 2026-05-06 15:16 | 18.62478 | -76.93245 | 25024 ft | 416 kts | 348° |
| 2026-05-06 15:16 | 18.65323 | -76.93883 | 25337 ft | 418 kts | 348° |
| 2026-05-06 15:16 | 18.68177 | -76.94522 | 25629 ft | 420 kts | 348° |
| 2026-05-06 15:17 | 18.71048 | -76.95165 | 25920 ft | 422 kts | 348° |
| 2026-05-06 15:17 | 18.73930 | -76.95811 | 26205 ft | 424 kts | 348° |
| 2026-05-06 15:17 | 18.76830 | -76.96461 | 26491 ft | 426 kts | 348° |
| 2026-05-06 15:17 | 18.79687 | -76.97100 | 26914 ft | 424 kts | 348° |
| 2026-05-06 15:18 | 18.82577 | -76.97747 | 27156 ft | 426 kts | 348° |
| 2026-05-06 15:18 | 18.85489 | -76.98400 | 27401 ft | 428 kts | 348° |
| 2026-05-06 15:18 | 18.88411 | -76.99055 | 27656 ft | 430 kts | 348° |
| 2026-05-06 15:18 | 18.91343 | -76.99713 | 27907 ft | 431 kts | 348° |
| 2026-05-06 15:19 | 18.94287 | -77.00374 | 28148 ft | 433 kts | 348° |
| 2026-05-06 15:19 | 18.97241 | -77.01038 | 28386 ft | 434 kts | 348° |
| 2026-05-06 15:19 | 19.00204 | -77.01704 | 28616 ft | 436 kts | 348° |
| 2026-05-06 15:19 | 19.03172 | -77.02370 | 28841 ft | 437 kts | 348° |
| 2026-05-06 15:20 | 19.06158 | -77.03041 | 29059 ft | 439 kts | 348° |
| 2026-05-06 15:20 | 19.09151 | -77.03714 | 29280 ft | 440 kts | 349° |
| 2026-05-06 15:20 | 19.12141 | -77.04387 | 29591 ft | 439 kts | 349° |
| 2026-05-06 15:20 | 19.15131 | -77.05061 | 29931 ft | 437 kts | 349° |
| 2026-05-06 15:21 | 19.18100 | -77.05730 | 30309 ft | 435 kts | 349° |
| 2026-05-06 15:21 | 19.21054 | -77.06396 | 30677 ft | 433 kts | 349° |
| 2026-05-06 15:21 | 19.24001 | -77.07061 | 30958 ft | 433 kts | 349° |
| 2026-05-06 15:21 | 19.26949 | -77.07727 | 31243 ft | 433 kts | 349° |
| 2026-05-06 15:22 | 19.29887 | -77.08390 | 31605 ft | 431 kts | 349° |
| 2026-05-06 15:22 | 19.32780 | -77.09075 | 31927 ft | 431 kts | 347° |
| 2026-05-06 15:22 | 19.35641 | -77.10041 | 32264 ft | 430 kts | 342° |
| 2026-05-06 15:22 | 19.38433 | -77.11155 | 32645 ft | 429 kts | 341° |
| 2026-05-06 15:23 | 19.41217 | -77.12317 | 32924 ft | 429 kts | 340° |
| 2026-05-06 15:23 | 19.44000 | -77.13481 | 33165 ft | 430 kts | 340° |
| 2026-05-06 15:23 | 19.46779 | -77.14644 | 33531 ft | 428 kts | 340° |
| 2026-05-06 15:23 | 19.49546 | -77.15803 | 33902 ft | 426 kts | 340° |
| 2026-05-06 15:24 | 19.52307 | -77.16960 | 34087 ft | 427 kts | 340° |
| 2026-05-06 15:24 | 19.57821 | -77.19273 | 34100 ft | 428 kts | 340° |
| 2026-05-06 15:25 | 19.63342 | -77.21591 | 34105 ft | 425 kts | 340° |
| 2026-05-06 15:25 | 19.68857 | -77.23903 | 34103 ft | 425 kts | 340° |
| 2026-05-06 15:26 | 19.74364 | -77.26211 | 34109 ft | 425 kts | 340° |
| 2026-05-06 15:26 | 19.79885 | -77.28529 | 34111 ft | 428 kts | 340° |
| 2026-05-06 15:27 | 19.85358 | -77.30829 | 34110 ft | 424 kts | 340° |
| 2026-05-06 15:27 | 19.90840 | -77.33136 | 34112 ft | 423 kts | 340° |
| 2026-05-06 15:28 | 19.96331 | -77.35448 | 34112 ft | 424 kts | 340° |
| 2026-05-06 15:28 | 20.00900 | -77.37373 | 34112 ft | 425 kts | 340° |
| 2026-05-06 15:29 | 20.06417 | -77.39700 | 34112 ft | 425 kts | 340° |
| 2026-05-06 15:29 | 20.11911 | -77.42019 | 34112 ft | 425 kts | 340° |
| 2026-05-06 15:30 | 20.17414 | -77.44344 | 34112 ft | 425 kts | 340° |
| 2026-05-06 15:30 | 20.22889 | -77.46658 | 34112 ft | 425 kts | 340° |
| 2026-05-06 15:31 | 20.28353 | -77.48969 | 34112 ft | 424 kts | 340° |
| 2026-05-06 15:31 | 20.33838 | -77.51291 | 34112 ft | 424 kts | 340° |
| 2026-05-06 15:32 | 20.42060 | -77.54776 | 34112 ft | 423 kts | 340° |
| 2026-05-06 15:32 | 20.47526 | -77.57094 | 34112 ft | 422 kts | 340° |
| 2026-05-06 15:33 | 20.52993 | -77.59415 | 34112 ft | 424 kts | 340° |
| 2026-05-06 15:33 | 20.58472 | -77.61742 | 34112 ft | 424 kts | 340° |
| 2026-05-06 15:34 | 20.63956 | -77.64074 | 34112 ft | 424 kts | 340° |
| 2026-05-06 15:34 | 20.69412 | -77.66395 | 34112 ft | 424 kts | 340° |
| 2026-05-06 15:35 | 20.74895 | -77.68730 | 34112 ft | 424 kts | 340° |
| 2026-05-06 15:35 | 20.80385 | -77.71068 | 34112 ft | 423 kts | 339° |
| 2026-05-06 15:36 | 20.85857 | -77.73403 | 34111 ft | 423 kts | 339° |
| 2026-05-06 15:36 | 20.91306 | -77.75729 | 34113 ft | 424 kts | 339° |
| 2026-05-06 15:37 | 20.96805 | -77.78074 | 34112 ft | 428 kts | 338° |
| 2026-05-06 15:37 | 21.02370 | -77.80454 | 34112 ft | 431 kts | 338° |
| 2026-05-06 15:38 | 21.07906 | -77.82824 | 34111 ft | 425 kts | 338° |
| 2026-05-06 15:38 | 21.13441 | -77.85195 | 34112 ft | 430 kts | 338° |
| 2026-05-06 15:39 | 21.18976 | -77.87567 | 34112 ft | 431 kts | 338° |
| 2026-05-06 15:39 | 21.24543 | -77.89955 | 34111 ft | 430 kts | 338° |
| 2026-05-06 15:40 | 21.30096 | -77.92339 | 34113 ft | 429 kts | 338° |
| 2026-05-06 15:40 | 21.35613 | -77.94709 | 34112 ft | 426 kts | 338° |
| 2026-05-06 15:41 | 21.41080 | -77.97060 | 34112 ft | 427 kts | 338° |
| 2026-05-06 15:41 | 21.46598 | -77.99434 | 34112 ft | 425 kts | 338° |
| 2026-05-06 15:42 | 21.52077 | -78.01793 | 34112 ft | 424 kts | 338° |
| 2026-05-06 15:42 | 21.57565 | -78.04159 | 34112 ft | 425 kts | 338° |
| 2026-05-06 15:43 | 21.63054 | -78.06526 | 34112 ft | 426 kts | 338° |
| 2026-05-06 15:43 | 21.68530 | -78.08890 | 34112 ft | 427 kts | 338° |
| 2026-05-06 15:44 | 21.74054 | -78.11277 | 34112 ft | 426 kts | 338° |
| 2026-05-06 15:44 | 21.79560 | -78.13658 | 34113 ft | 426 kts | 338° |
| 2026-05-06 15:45 | 21.84994 | -78.16010 | 34112 ft | 421 kts | 338° |
| 2026-05-06 15:45 | 21.90420 | -78.18360 | 34112 ft | 420 kts | 338° |
| 2026-05-06 15:46 | 21.95853 | -78.20715 | 34112 ft | 421 kts | 338° |
| 2026-05-06 15:46 | 22.01295 | -78.23076 | 34112 ft | 420 kts | 338° |
| 2026-05-06 15:47 | 22.06694 | -78.25421 | 34112 ft | 421 kts | 338° |
| 2026-05-06 15:47 | 22.12132 | -78.27784 | 34112 ft | 423 kts | 338° |
| 2026-05-06 15:48 | 22.17588 | -78.30157 | 34112 ft | 423 kts | 338° |
| 2026-05-06 15:48 | 22.23059 | -78.32539 | 34111 ft | 422 kts | 338° |
| 2026-05-06 15:49 | 22.28514 | -78.34916 | 34112 ft | 422 kts | 338° |
| 2026-05-06 15:49 | 22.33940 | -78.37282 | 34112 ft | 422 kts | 338° |
| 2026-05-06 15:50 | 22.39386 | -78.39659 | 34112 ft | 422 kts | 338° |
| 2026-05-06 15:50 | 22.44834 | -78.42039 | 34112 ft | 422 kts | 338° |
| 2026-05-06 15:51 | 22.50291 | -78.44420 | 34112 ft | 422 kts | 338° |
| 2026-05-06 15:51 | 22.55705 | -78.46787 | 34112 ft | 422 kts | 338° |
| 2026-05-06 15:52 | 22.61150 | -78.49173 | 34112 ft | 422 kts | 338° |
| 2026-05-06 15:52 | 22.66589 | -78.51560 | 34112 ft | 422 kts | 338° |
| 2026-05-06 15:53 | 22.72015 | -78.53944 | 34110 ft | 417 kts | 339° |
| 2026-05-06 15:53 | 22.77484 | -78.56148 | 34113 ft | 421 kts | 344° |
| 2026-05-06 15:54 | 22.83195 | -78.57385 | 34112 ft | 420 kts | 348° |
| 2026-05-06 15:54 | 22.88957 | -78.58495 | 34112 ft | 420 kts | 349° |
| 2026-05-06 15:55 | 22.94729 | -78.59597 | 34112 ft | 420 kts | 349° |
| 2026-05-06 15:55 | 23.00459 | -78.60685 | 34112 ft | 420 kts | 349° |
| 2026-05-06 15:56 | 23.06225 | -78.61778 | 34112 ft | 420 kts | 349° |
| 2026-05-06 15:56 | 23.11981 | -78.62867 | 34112 ft | 420 kts | 349° |
| 2026-05-06 15:57 | 23.17746 | -78.63955 | 34112 ft | 420 kts | 349° |
| 2026-05-06 15:57 | 23.23502 | -78.65042 | 34111 ft | 419 kts | 349° |
| 2026-05-06 15:58 | 23.29238 | -78.66127 | 34112 ft | 417 kts | 349° |
| 2026-05-06 15:58 | 23.34935 | -78.67205 | 34112 ft | 415 kts | 349° |
| 2026-05-06 15:59 | 23.40583 | -78.68276 | 34180 ft | 411 kts | 349° |
| 2026-05-06 15:59 | 23.43407 | -78.68799 | 34411 ft | 410 kts | 349° |
| 2026-05-06 15:59 | 23.46244 | -78.69337 | 34344 ft | 416 kts | 349° |
| 2026-05-06 16:00 | 23.49103 | -78.69883 | 34150 ft | 417 kts | 349° |
| 2026-05-06 16:00 | 23.51957 | -78.70428 | 34117 ft | 416 kts | 349° |
| 2026-05-06 16:00 | 23.57655 | -78.71515 | 34112 ft | 415 kts | 349° |
| 2026-05-06 16:01 | 23.63310 | -78.72592 | 34112 ft | 415 kts | 349° |
| 2026-05-06 16:01 | 23.69007 | -78.73677 | 34112 ft | 415 kts | 349° |
| 2026-05-06 16:02 | 23.74702 | -78.74761 | 34112 ft | 415 kts | 349° |
| 2026-05-06 16:02 | 23.80414 | -78.75849 | 34112 ft | 417 kts | 348° |
| 2026-05-06 16:03 | 23.86171 | -78.76951 | 34112 ft | 420 kts | 348° |
| 2026-05-06 16:03 | 23.91930 | -78.78053 | 34113 ft | 420 kts | 348° |
| 2026-05-06 16:04 | 23.97621 | -78.79279 | 34111 ft | 418 kts | 342° |
| 2026-05-06 16:04 | 24.02963 | -78.81718 | 34112 ft | 416 kts | 332° |
| 2026-05-06 16:05 | 24.07988 | -78.84890 | 34112 ft | 416 kts | 329° |
| 2026-05-06 16:05 | 24.12956 | -78.88161 | 34112 ft | 417 kts | 329° |
| 2026-05-06 16:06 | 24.17930 | -78.91449 | 34112 ft | 417 kts | 329° |
| 2026-05-06 16:06 | 24.22867 | -78.94711 | 34112 ft | 416 kts | 329° |
| 2026-05-06 16:07 | 24.27838 | -78.97993 | 34112 ft | 416 kts | 329° |
| 2026-05-06 16:07 | 24.32783 | -79.01271 | 34112 ft | 414 kts | 328° |
| 2026-05-06 16:08 | 24.37713 | -79.04548 | 34112 ft | 415 kts | 328° |
| 2026-05-06 16:08 | 24.42629 | -79.07820 | 34123 ft | 412 kts | 328° |
| 2026-05-06 16:09 | 24.47544 | -79.11090 | 34124 ft | 413 kts | 328° |
| 2026-05-06 16:09 | 24.49998 | -79.12726 | 33867 ft | 411 kts | 328° |
| 2026-05-06 16:09 | 24.52412 | -79.14332 | 33252 ft | 409 kts | 328° |
| 2026-05-06 16:10 | 24.54848 | -79.15954 | 32737 ft | 406 kts | 328° |
| 2026-05-06 16:10 | 24.57259 | -79.17555 | 32236 ft | 403 kts | 328° |
| 2026-05-06 16:10 | 24.59652 | -79.19148 | 31743 ft | 400 kts | 328° |
| 2026-05-06 16:10 | 24.62024 | -79.20730 | 31257 ft | 397 kts | 328° |
| 2026-05-06 16:11 | 24.64347 | -79.22281 | 30784 ft | 394 kts | 328° |
| 2026-05-06 16:11 | 24.66684 | -79.23844 | 30310 ft | 392 kts | 328° |
| 2026-05-06 16:11 | 24.69013 | -79.25402 | 29844 ft | 389 kts | 328° |
| 2026-05-06 16:11 | 24.71318 | -79.26946 | 29383 ft | 387 kts | 328° |
| 2026-05-06 16:12 | 24.73610 | -79.28482 | 28923 ft | 385 kts | 328° |
| 2026-05-06 16:12 | 24.75886 | -79.30007 | 28465 ft | 383 kts | 328° |
| 2026-05-06 16:12 | 24.78155 | -79.31528 | 28009 ft | 381 kts | 328° |
| 2026-05-06 16:12 | 24.80417 | -79.33042 | 27554 ft | 379 kts | 328° |
| 2026-05-06 16:13 | 24.82634 | -79.34531 | 27107 ft | 378 kts | 328° |
| 2026-05-06 16:13 | 24.84885 | -79.36032 | 26654 ft | 376 kts | 328° |
| 2026-05-06 16:13 | 24.87122 | -79.37528 | 26201 ft | 375 kts | 328° |
| 2026-05-06 16:13 | 24.89349 | -79.39021 | 25748 ft | 374 kts | 328° |
| 2026-05-06 16:14 | 24.91577 | -79.40516 | 25294 ft | 374 kts | 328° |
| 2026-05-06 16:14 | 24.93797 | -79.42007 | 24842 ft | 373 kts | 328° |
| 2026-05-06 16:14 | 24.96009 | -79.43494 | 24394 ft | 372 kts | 328° |
| 2026-05-06 16:14 | 24.98220 | -79.44983 | 23943 ft | 371 kts | 328° |
| 2026-05-06 16:15 | 25.00394 | -79.46448 | 23501 ft | 371 kts | 328° |
| 2026-05-06 16:15 | 25.02594 | -79.47930 | 23052 ft | 370 kts | 328° |
| 2026-05-06 16:15 | 25.04787 | -79.49408 | 22604 ft | 369 kts | 328° |
| 2026-05-06 16:15 | 25.06978 | -79.50883 | 22158 ft | 368 kts | 328° |
| 2026-05-06 16:16 | 25.09166 | -79.52358 | 21712 ft | 367 kts | 328° |
| 2026-05-06 16:16 | 25.11335 | -79.53819 | 21270 ft | 366 kts | 329° |
| 2026-05-06 16:16 | 25.12778 | -79.54786 | 20976 ft | 365 kts | 329° |
| 2026-05-06 16:16 | 25.14947 | -79.56244 | 20537 ft | 364 kts | 329° |
| 2026-05-06 16:17 | 25.17108 | -79.57699 | 20098 ft | 363 kts | 329° |
| 2026-05-06 16:17 | 25.19260 | -79.59151 | 19662 ft | 361 kts | 329° |
| 2026-05-06 16:17 | 25.21405 | -79.60599 | 19230 ft | 360 kts | 329° |
| 2026-05-06 16:17 | 25.23533 | -79.62038 | 18800 ft | 359 kts | 329° |
| 2026-05-06 16:18 | 25.25660 | -79.63477 | 18372 ft | 358 kts | 329° |
| 2026-05-06 16:18 | 25.27775 | -79.64909 | 17947 ft | 356 kts | 329° |
| 2026-05-06 16:18 | 25.29885 | -79.66338 | 17528 ft | 354 kts | 329° |
| 2026-05-06 16:18 | 25.31983 | -79.67759 | 17013 ft | 350 kts | 329° |
| 2026-05-06 16:19 | 25.34010 | -79.69133 | 16592 ft | 342 kts | 329° |
| 2026-05-06 16:19 | 25.36019 | -79.70494 | 16181 ft | 335 kts | 329° |
| 2026-05-06 16:19 | 25.37915 | -79.71938 | 15785 ft | 328 kts | 321° |
| 2026-05-06 16:19 | 25.39542 | -79.73678 | 15397 ft | 322 kts | 313° |
| 2026-05-06 16:20 | 25.40945 | -79.75583 | 15023 ft | 317 kts | 308° |
| 2026-05-06 16:20 | 25.42222 | -79.77550 | 14657 ft | 311 kts | 306° |
| 2026-05-06 16:20 | 25.43448 | -79.79505 | 14300 ft | 306 kts | 306° |
| 2026-05-06 16:20 | 25.44660 | -79.81420 | 13950 ft | 301 kts | 307° |
| 2026-05-06 16:21 | 25.45863 | -79.83306 | 13609 ft | 302 kts | 307° |
| 2026-05-06 16:21 | 25.47075 | -79.85204 | 13264 ft | 309 kts | 307° |
| 2026-05-06 16:21 | 25.48324 | -79.87161 | 12872 ft | 313 kts | 307° |
| 2026-05-06 16:21 | 25.49593 | -79.89133 | 12543 ft | 314 kts | 307° |
| 2026-05-06 16:22 | 25.50855 | -79.91102 | 12197 ft | 310 kts | 307° |
| 2026-05-06 16:22 | 25.52097 | -79.93042 | 11789 ft | 309 kts | 307° |
| 2026-05-06 16:22 | 25.53341 | -79.94988 | 11451 ft | 309 kts | 307° |
| 2026-05-06 16:22 | 25.54583 | -79.96931 | 11107 ft | 308 kts | 307° |
| 2026-05-06 16:23 | 25.55792 | -79.98825 | 10920 ft | 301 kts | 307° |
| 2026-05-06 16:23 | 25.56989 | -80.00698 | 10759 ft | 294 kts | 307° |
| 2026-05-06 16:23 | 25.57986 | -80.02261 | 10619 ft | 288 kts | 307° |
| 2026-05-06 16:23 | 25.59136 | -80.04058 | 10362 ft | 285 kts | 307° |
| 2026-05-06 16:24 | 25.60273 | -80.05838 | 10178 ft | 280 kts | 307° |
| 2026-05-06 16:24 | 25.61385 | -80.07581 | 10020 ft | 273 kts | 307° |
| 2026-05-06 16:24 | 25.62480 | -80.09298 | 9748 ft | 272 kts | 307° |
| 2026-05-06 16:24 | 25.63568 | -80.11005 | 9468 ft | 271 kts | 307° |
| 2026-05-06 16:25 | 25.64643 | -80.12691 | 9189 ft | 269 kts | 307° |
| 2026-05-06 16:25 | 25.65650 | -80.14442 | 8896 ft | 270 kts | 301° |
| 2026-05-06 16:25 | 25.66500 | -80.16315 | 8658 ft | 274 kts | 297° |
| 2026-05-06 16:25 | 25.67301 | -80.18238 | 8415 ft | 276 kts | 297° |
| 2026-05-06 16:26 | 25.68103 | -80.20181 | 8164 ft | 277 kts | 297° |
| 2026-05-06 16:26 | 25.68910 | -80.22115 | 7877 ft | 277 kts | 297° |
| 2026-05-06 16:26 | 25.69718 | -80.24018 | 7612 ft | 275 kts | 297° |
| 2026-05-06 16:26 | 25.70535 | -80.25962 | 7336 ft | 275 kts | 295° |
| 2026-05-06 16:27 | 25.71059 | -80.27977 | 7058 ft | 276 kts | 281° |
| 2026-05-06 16:27 | 25.71220 | -80.30094 | 6779 ft | 276 kts | 272° |
| 2026-05-06 16:27 | 25.71154 | -80.32225 | 6497 ft | 275 kts | 267° |
| 2026-05-06 16:27 | 25.70997 | -80.34334 | 6218 ft | 274 kts | 267° |
| 2026-05-06 16:28 | 25.70870 | -80.36443 | 5939 ft | 273 kts | 268° |
| 2026-05-06 16:28 | 25.70759 | -80.38517 | 5665 ft | 271 kts | 268° |
| 2026-05-06 16:28 | 25.70654 | -80.40605 | 5390 ft | 270 kts | 268° |
| 2026-05-06 16:28 | 25.70548 | -80.42678 | 5119 ft | 269 kts | 268° |
| 2026-05-06 16:29 | 25.70449 | -80.44731 | 4931 ft | 265 kts | 268° |
| 2026-05-06 16:29 | 25.70353 | -80.46758 | 4838 ft | 262 kts | 268° |
| 2026-05-06 16:29 | 25.70256 | -80.48779 | 4746 ft | 263 kts | 268° |
| 2026-05-06 16:29 | 25.70158 | -80.50808 | 4654 ft | 263 kts | 268° |
| 2026-05-06 16:30 | 25.70084 | -80.52829 | 4556 ft | 262 kts | 274° |
| 2026-05-06 16:30 | 25.70371 | -80.54126 | 4475 ft | 258 kts | 296° |
| 2026-05-06 16:30 | 25.71871 | -80.56032 | 4346 ft | 238 kts | 323° |
| 2026-05-06 16:30 | 25.73315 | -80.56831 | 4226 ft | 227 kts | 346° |
| 2026-05-06 16:31 | 25.74836 | -80.56686 | 4134 ft | 221 kts | 24° |
| 2026-05-06 16:31 | 25.76026 | -80.55666 | 4070 ft | 222 kts | 48° |
| 2026-05-06 16:31 | 25.76867 | -80.54204 | 3980 ft | 226 kts | 65° |
| 2026-05-06 16:31 | 25.77339 | -80.52559 | 4062 ft | 219 kts | 77° |
| 2026-05-06 16:32 | 25.77598 | -80.50888 | 3958 ft | 221 kts | 81° |
| 2026-05-06 16:32 | 25.77815 | -80.49206 | 3581 ft | 220 kts | 84° |
| 2026-05-06 16:32 | 25.77933 | -80.47516 | 3145 ft | 218 kts | 87° |
| 2026-05-06 16:32 | 25.78011 | -80.45826 | 2620 ft | 219 kts | 88° |
| 2026-05-06 16:33 | 25.78082 | -80.44161 | 2294 ft | 211 kts | 88° |
| 2026-05-06 16:33 | 25.78149 | -80.42572 | 2017 ft | 201 kts | 88° |
| 2026-05-06 16:33 | 25.78212 | -80.41066 | 1751 ft | 190 kts | 88° |
| 2026-05-06 16:34 | 25.78327 | -80.38302 | 1273 ft | 171 kts | 88° |
| 2026-05-06 16:34 | 25.78380 | -80.37018 | 1080 ft | 158 kts | 88° |
| 2026-05-06 16:34 | 25.78429 | -80.35823 | 869 ft | 153 kts | 88° |
| 2026-05-06 16:34 | 25.78478 | -80.34655 | 654 ft | 150 kts | 88° |
| 2026-05-06 16:35 | 25.78525 | -80.33515 | 460 ft | 147 kts | 88° |
| 2026-05-06 16:35 | 25.78571 | -80.32396 | 270 ft | 144 kts | 88° |
| 2026-05-06 16:35 | 25.78621 | -80.31318 | 83 ft | 136 kts | 89° |
| 2026-05-06 16:35 | 25.78658 | -80.30336 | 17 ft | 114 kts | 89° |
| 2026-05-06 16:36 | 25.78680 | -80.29688 | 16 ft | 57 kts | 89° |
| 2026-05-06 16:36 | 25.78712 | -80.29301 | 16 ft | 42 kts | 65° |
| 2026-05-06 16:36 | 25.78819 | -80.29103 | 16 ft | 20 kts | 76° |
| 2026-05-06 16:36 | 25.78824 | -80.29046 | 16 ft | 0 kts | 86° |
| 2026-05-06 16:37 | 25.78824 | -80.29045 | 16 ft | 0 kts | 86° |
| 2026-05-06 16:38 | 25.78825 | -80.29040 | 16 ft | 4 kts | 85° |
| 2026-05-06 16:38 | 25.78837 | -80.28961 | 16 ft | 13 kts | 80° |
| 2026-05-06 16:38 | 25.78862 | -80.28886 | 16 ft | 9 kts | 77° |
| 2026-05-06 16:38 | 25.78868 | -80.28795 | 16 ft | 13 kts | 90° |
| 2026-05-06 16:39 | 25.78872 | -80.28711 | 16 ft | 8 kts | 65° |
| 2026-05-06 16:39 | 25.78913 | -80.28687 | 16 ft | 11 kts | 8° |
| 2026-05-06 16:39 | 25.79042 | -80.28690 | 16 ft | 25 kts | 360° |
| 2026-05-06 16:39 | 25.79212 | -80.28699 | 16 ft | 22 kts | 359° |
| 2026-05-06 16:40 | 25.79301 | -80.28760 | 16 ft | 13 kts | 296° |
| 2026-05-06 16:40 | 25.79357 | -80.28795 | 16 ft | 10 kts | 358° |
| 2026-05-06 16:40 | 25.79460 | -80.28799 | 16 ft | 19 kts | 357° |
| 2026-05-06 16:40 | 25.79607 | -80.28806 | 16 ft | 22 kts | 358° |
| 2026-05-06 16:41 | 25.79745 | -80.28811 | 16 ft | 17 kts | 358° |
| 2026-05-06 16:41 | 25.79846 | -80.28814 | 16 ft | 15 kts | 358° |
| 2026-05-06 16:41 | 25.79928 | -80.28769 | 16 ft | 12 kts | 80° |
| 2026-05-06 16:41 | 25.79943 | -80.28674 | 16 ft | 14 kts | 80° |
| 2026-05-06 16:42 | 25.79947 | -80.28546 | 16 ft | 19 kts | 90° |
| 2026-05-06 16:42 | 25.79949 | -80.28395 | 16 ft | 19 kts | 91° |
| 2026-05-06 16:42 | 25.79910 | -80.28323 | 16 ft | 4 kts | 175° |
| 2026-05-06 16:42 | 25.79890 | -80.28322 | 16 ft | 4 kts | 175° |
| 2026-05-06 16:43 | 25.79839 | -80.28318 | 16 ft | 5 kts | 177° |
| 2026-05-06 16:43 | 25.79821 | -80.28318 | 16 ft | 3 kts | 179° |
| 2026-05-06 16:43 | 25.79816 | -80.28318 | 16 ft | 0 kts | 179° |